Cambridge, VT (05444)

3:57 PM EDT en Agosto 30, 2015 (GMT -0400)
Cambridge Elementary School | | Change Station
CLOSE
Current Station
Estación meteorológica personal
Location: Cambridge, VT
Altura: 472 ft
Estaciones meteorológicas cercanas

Alt 472 ft 44.64 °N, 72.83 °W | Updated 1 second ago

Parcialmente nublado
Parcialmente nublado
80.9 ° F
Sensación térmica 82 ° F
N
0.0
Viento Variable Viento desde OSO
Gusts 3.0 mph

Hoy
Alta -- | Baja -- ° F
--% Posibilidad de precipitaciones
Ayer
Alta -- | Baja -- ° F
Precip. -- pul
6:11 AM 7:32 PM
Luna llena, 98% visible
Presión 30.04 pul
Visibilidad 10.0 Millas
Nubes Muy nublado 4900 ft
Muy nublado 6000 ft
Índice de calor 82 ° F
Punto de rocío 63 ° F
Humedad 55%
Precipitaciones 0.00 pul
Espesor de la nieve No disponible.
UV 2 de una escala de 12
Polen 8.50 de una escala de 12
Calidad del aire No disponible.
Flu Activity No disponible.
METAR KMVL 301954Z AUTO 04004KT 10SM BKN049 BKN060 26/14 A3004 RMK AO2 SLP170 T02610144 TSNO
Presión 30.04 pul
Visibilidad 10.0 Millas
Nubes Muy nublado 4900 ft
Muy nublado 6000 ft
Índice de calor 82 ° F
Punto de rocío 63 ° F
Humedad 55%
Precipitaciones 0.00 pul
Espesor de la nieve No disponible.
UV 2 de una escala de 12
Polen 8.50 de una escala de 12
Calidad del aire No disponible.
Flu Activity No disponible.
METAR KMVL 301954Z AUTO 04004KT 10SM BKN049 BKN060 26/14 A3004 RMK AO2 SLP170 T02610144 TSNO

10-Day Weather Forecast

×

Almanac

Astronomía

Aug. 30, 2015 Salida Puesta
Hora real
Crepúsculo civil
Crepúsculo náutico
Crepúsculo astronómico
Luna
Horas de luz
Horas de luz
Tomorrow will be .
, % of the Moon is Illuminated

Extremos de hoy

Máximos del estado Bajos del estado

Community

WunderPhotos

Upload Photos

1,851,041 ¡fotos cargadas!

WunderBlogs® & News

Nearby

Calidad del aire

  Calidad del aire Índice AQ Contaminante
Not available.

Grosos de nieve

Estación Profundido Altura

Actividad de terremotos

Ciudad Distance Mag. Tiempo y dato
Magnitud mínima muestra es 2,5.

Temperaturas de aguas costeras

Lugar Temperatura

Stations

Estaciones meteorológicas cercanas

Ubicación de la estación Temp. Vientos helados Punto de rocío Humedad Viento Precip. Alt Actualizado Tipo